createdAt,value
2023-03-15T00:01:27.199Z,101293.00
2023-03-15T00:03:57.223Z,101298.00
2023-03-15T00:06:24.231Z,101287.00
2023-03-15T00:08:52.155Z,101300.00
2023-03-15T00:11:19.063Z,101305.00
2023-03-15T00:13:46.014Z,101294.00
2023-03-15T00:16:17.594Z,101295.00
2023-03-15T00:18:47.029Z,101306.00
2023-03-15T00:21:13.938Z,101306.00
2023-03-15T00:23:40.559Z,101311.00
2023-03-15T00:26:07.114Z,101315.00
2023-03-15T00:28:33.691Z,101322.00
2023-03-15T00:31:14.966Z,101330.00
2023-03-15T00:33:42.167Z,101331.00
2023-03-15T00:36:09.950Z,101335.00
2023-03-15T00:38:38.073Z,101342.00
2023-03-15T00:41:23.513Z,101338.00
2023-03-15T00:43:50.453Z,101342.00
2023-03-15T00:46:18.098Z,101349.00
2023-03-15T00:48:48.548Z,101343.00
2023-03-15T00:51:18.193Z,101351.00
2023-03-15T00:53:46.411Z,101357.00
2023-03-15T00:56:19.069Z,101350.00
2023-03-15T00:58:47.079Z,101352.00
2023-03-15T01:01:17.460Z,101366.00
2023-03-15T01:03:45.094Z,101362.00
2023-03-15T01:06:15.516Z,101367.00
2023-03-15T01:08:42.400Z,101361.00
2023-03-15T01:11:15.127Z,101364.00
2023-03-15T01:13:42.063Z,101360.00
2023-03-15T01:16:10.637Z,101368.00
2023-03-15T01:18:37.950Z,101368.00
2023-03-15T01:21:09.450Z,101374.00
2023-03-15T01:23:36.223Z,101378.00
2023-03-15T01:26:05.429Z,101381.00
2023-03-15T01:28:32.678Z,101379.00
2023-03-15T01:31:00.115Z,101383.00
2023-03-15T01:33:27.273Z,101388.00
2023-03-15T01:36:05.411Z,101381.00
2023-03-15T01:38:33.738Z,101398.00
2023-03-15T01:41:01.363Z,101397.00
2023-03-15T01:43:30.024Z,101400.00
2023-03-15T01:45:59.575Z,101402.00
2023-03-15T01:48:29.421Z,101406.00
2023-03-15T01:50:57.261Z,101405.00
2023-03-15T01:53:26.484Z,101408.00
2023-03-15T01:55:54.581Z,101407.00
2023-03-15T01:58:26.813Z,101400.00
2023-03-15T02:00:54.104Z,101404.00
2023-03-15T02:03:29.208Z,101413.00
2023-03-15T02:06:01.287Z,101407.00
2023-03-15T02:08:33.219Z,101405.00
2023-03-15T02:11:04.060Z,101416.00
2023-03-15T02:13:32.550Z,101404.00
2023-03-15T02:15:59.862Z,101418.00
2023-03-15T02:18:26.543Z,101413.00
2023-03-15T02:21:08.097Z,101423.00
2023-03-15T02:23:34.969Z,101423.00
2023-03-15T02:26:07.513Z,101425.00
2023-03-15T02:28:34.913Z,101431.00
2023-03-15T02:31:01.692Z,101433.00
2023-03-15T02:33:36.655Z,101435.00
2023-03-15T02:36:15.607Z,101437.00
2023-03-15T02:38:42.489Z,101448.00
2023-03-15T02:41:09.445Z,101443.00
2023-03-15T02:43:36.910Z,101449.00
2023-03-15T02:46:04.711Z,101459.00
2023-03-15T02:48:34.195Z,101457.00
2023-03-15T02:51:02.151Z,101461.00
2023-03-15T02:53:30.297Z,101456.00
2023-03-15T02:55:57.384Z,101456.00
2023-03-15T02:58:24.520Z,101454.00
2023-03-15T03:00:53.105Z,101458.00
2023-03-15T03:03:19.838Z,101470.00
2023-03-15T03:05:46.437Z,101469.00
2023-03-15T03:08:16.646Z,101467.00
2023-03-15T03:10:43.400Z,101475.00
2023-03-15T03:13:10.074Z,101476.00
2023-03-15T03:15:36.789Z,101474.00
2023-03-15T03:18:03.639Z,101479.00
2023-03-15T03:20:30.229Z,101483.00
2023-03-15T03:22:56.878Z,101482.00
2023-03-15T03:25:27.282Z,101481.00
2023-03-15T03:27:57.191Z,101486.00
2023-03-15T03:30:24.534Z,101494.00
2023-03-15T03:32:51.332Z,101495.00
2023-03-15T03:35:18.169Z,101498.00
2023-03-15T03:37:45.000Z,101500.00
2023-03-15T03:40:12.345Z,101499.00
2023-03-15T03:42:38.958Z,101507.00
2023-03-15T03:45:06.365Z,101508.00
2023-03-15T03:47:34.186Z,101507.00
2023-03-15T03:50:00.799Z,101507.00
2023-03-15T03:52:27.747Z,101510.00
2023-03-15T03:54:54.407Z,101513.00
2023-03-15T03:57:21.250Z,101519.00
2023-03-15T03:59:47.907Z,101516.00
2023-03-15T04:02:14.561Z,101526.00
2023-03-15T04:04:42.219Z,101528.00
2023-03-15T04:07:08.940Z,101532.00
2023-03-15T04:09:38.901Z,101533.00
2023-03-15T04:12:06.556Z,101532.00
2023-03-15T04:14:33.299Z,101533.00
2023-03-15T04:17:00.006Z,101537.00
2023-03-15T04:19:27.028Z,101543.00
2023-03-15T04:21:53.692Z,101537.00
2023-03-15T04:24:20.324Z,101542.00
2023-03-15T04:26:46.983Z,101536.00
2023-03-15T04:29:15.266Z,101548.00
2023-03-15T04:31:43.396Z,101556.00
2023-03-15T04:34:10.232Z,101570.00
2023-03-15T04:36:36.912Z,101569.00
2023-03-15T04:39:07.422Z,101565.00
2023-03-15T04:41:37.165Z,101566.00
2023-03-15T04:44:04.476Z,101568.00
2023-03-15T04:46:32.359Z,101577.00
2023-03-15T04:48:59.491Z,101577.00
2023-03-15T04:51:26.320Z,101592.00
2023-03-15T04:53:52.995Z,101589.00
2023-03-15T04:56:19.608Z,101593.00
2023-03-15T04:58:46.194Z,101589.00
2023-03-15T05:01:13.602Z,101596.00
2023-03-15T05:03:40.610Z,101598.00
2023-03-15T05:06:08.381Z,101608.00
2023-03-15T05:08:36.562Z,101604.00
2023-03-15T05:11:04.581Z,101608.00
2023-03-15T05:13:31.564Z,101604.00
2023-03-15T05:15:58.189Z,101609.00
2023-03-15T05:18:24.794Z,101613.00
2023-03-15T05:20:51.390Z,101606.00
2023-03-15T05:23:18.069Z,101615.00
2023-03-15T05:25:50.441Z,101613.00
2023-03-15T05:28:18.368Z,101616.00
2023-03-15T05:30:44.916Z,101623.00
2023-03-15T05:33:11.894Z,101622.00
2023-03-15T05:35:38.586Z,101618.00
2023-03-15T05:38:06.102Z,101620.00
2023-03-15T05:40:33.126Z,101619.00
2023-03-15T05:42:59.727Z,101629.00
2023-03-15T05:45:26.387Z,101632.00
2023-03-15T05:47:53.042Z,101629.00
2023-03-15T05:50:19.618Z,101639.00
2023-03-15T05:52:46.223Z,101648.00
2023-03-15T05:55:12.904Z,101645.00
2023-03-15T05:57:39.547Z,101647.00
2023-03-15T06:00:07.056Z,101654.00
2023-03-15T06:02:33.693Z,101659.00
2023-03-15T06:05:00.503Z,101651.00
2023-03-15T06:07:27.294Z,101660.00
2023-03-15T06:09:54.264Z,101662.00
2023-03-15T06:12:20.858Z,101671.00
2023-03-15T06:14:47.471Z,101672.00
2023-03-15T06:17:14.104Z,101674.00
2023-03-15T06:19:40.738Z,101676.00
2023-03-15T06:22:07.528Z,101677.00
2023-03-15T06:24:34.280Z,101681.00
2023-03-15T06:27:00.977Z,101677.00
2023-03-15T06:29:27.594Z,101685.00
2023-03-15T06:31:54.253Z,101685.00
2023-03-15T06:34:21.385Z,101689.00
2023-03-15T06:36:49.636Z,101690.00
2023-03-15T06:39:16.220Z,101692.00
2023-03-15T06:41:42.966Z,101699.00
2023-03-15T06:44:10.566Z,101699.00
2023-03-15T06:46:37.622Z,101706.00
2023-03-15T06:49:04.262Z,101703.00
2023-03-15T06:51:30.850Z,101707.00
2023-03-15T06:53:57.459Z,101710.00
2023-03-15T06:56:24.055Z,101713.00
2023-03-15T06:58:50.642Z,101717.00
2023-03-15T07:01:17.276Z,101713.00
2023-03-15T07:03:43.981Z,101727.00
2023-03-15T07:06:10.575Z,101723.00
2023-03-15T07:08:37.229Z,101729.00
2023-03-15T07:11:04.044Z,101746.00
2023-03-15T07:13:30.649Z,101751.00
2023-03-15T07:15:57.338Z,101757.00
2023-03-15T07:18:23.959Z,101755.00
2023-03-15T07:21:01.561Z,101758.00
2023-03-15T07:23:28.624Z,101771.00
2023-03-15T07:25:55.894Z,101774.00
2023-03-15T07:28:24.458Z,101772.00
2023-03-15T07:31:02.289Z,101774.00
2023-03-15T07:33:30.786Z,101776.00
2023-03-15T07:35:57.494Z,101769.00
2023-03-15T07:38:27.092Z,101778.00
2023-03-15T07:40:53.686Z,101788.00
2023-03-15T07:43:20.812Z,101787.00
2023-03-15T07:45:47.509Z,101794.00
2023-03-15T07:48:14.149Z,101797.00
2023-03-15T07:50:41.395Z,101796.00
2023-03-15T07:53:08.089Z,101794.00
2023-03-15T07:55:35.400Z,101794.00
2023-03-15T07:58:02.405Z,101800.00
2023-03-15T08:00:29.548Z,101799.00
2023-03-15T08:02:56.276Z,101805.00
2023-03-15T08:05:22.943Z,101811.00
2023-03-15T08:07:49.831Z,101810.00
2023-03-15T08:10:17.610Z,101817.00
2023-03-15T08:12:44.739Z,101823.00
2023-03-15T08:15:15.676Z,101823.00
2023-03-15T08:17:42.676Z,101822.00
2023-03-15T08:20:17.625Z,101825.00
2023-03-15T08:22:45.923Z,101827.00
2023-03-15T08:25:15.319Z,101829.00
2023-03-15T08:27:42.378Z,101832.00
2023-03-15T08:30:12.549Z,101832.00
2023-03-15T08:32:40.338Z,101839.00
2023-03-15T08:35:07.765Z,101838.00
2023-03-15T08:37:34.461Z,101843.00
2023-03-15T08:40:05.299Z,101846.00
2023-03-15T08:42:31.976Z,101846.00
2023-03-15T08:44:59.667Z,101850.00
2023-03-15T08:47:26.705Z,101842.00
2023-03-15T08:49:53.289Z,101849.00
2023-03-15T08:52:21.461Z,101858.00
2023-03-15T08:54:48.964Z,101860.00
2023-03-15T08:57:15.568Z,101873.00
2023-03-15T08:59:42.124Z,101860.00
2023-03-15T09:02:11.561Z,101857.00
2023-03-15T09:04:38.246Z,101860.00
2023-03-15T09:07:04.914Z,101857.00
2023-03-15T09:09:31.721Z,101859.00
2023-03-15T09:11:58.367Z,101857.00
2023-03-15T09:14:24.950Z,101858.00
2023-03-15T09:16:52.569Z,101861.00
2023-03-15T09:19:19.408Z,101863.00
2023-03-15T09:21:47.247Z,101852.00
2023-03-15T09:24:14.524Z,101857.00
2023-03-15T09:26:41.389Z,101858.00
2023-03-15T09:29:09.600Z,101855.00
2023-03-15T09:31:36.220Z,101850.00
2023-03-15T09:34:03.547Z,101843.00
2023-03-15T09:36:30.173Z,101842.00
2023-03-15T09:38:57.257Z,101847.00
2023-03-15T09:41:44.239Z,101844.00
2023-03-15T09:44:55.577Z,101845.00
2023-03-15T09:47:36.980Z,101844.00
2023-03-15T09:50:19.203Z,101842.00
2023-03-15T09:53:15.174Z,101858.00
2023-03-15T09:55:43.909Z,101861.00
2023-03-15T09:58:21.405Z,101852.00
2023-03-15T10:00:52.805Z,101860.00
2023-03-15T10:03:41.707Z,101863.00
2023-03-15T10:06:26.198Z,101876.00
2023-03-15T10:09:04.685Z,101864.00
2023-03-15T10:11:37.407Z,101871.00
2023-03-15T10:14:13.558Z,101871.00
2023-03-15T10:16:46.573Z,101873.00
2023-03-15T10:19:33.883Z,101875.00
2023-03-15T10:22:19.160Z,101877.00
2023-03-15T10:24:57.875Z,101877.00
2023-03-15T10:27:32.816Z,101892.00
2023-03-15T10:30:00.948Z,101885.00
2023-03-15T10:32:31.323Z,101889.00
2023-03-15T10:34:58.908Z,101896.00
2023-03-15T10:37:26.251Z,101897.00
2023-03-15T10:39:58.586Z,101897.00
2023-03-15T10:42:30.112Z,101889.00
2023-03-15T10:44:57.466Z,101892.00
2023-03-15T10:47:26.131Z,101892.00
2023-03-15T10:49:59.501Z,101896.00
2023-03-15T10:52:37.281Z,101892.00
2023-03-15T10:55:12.453Z,101901.00
2023-03-15T10:57:41.856Z,101907.00
2023-03-15T11:00:32.632Z,101910.00
2023-03-15T11:03:21.072Z,101908.00
2023-03-15T11:05:51.094Z,101917.00
2023-03-15T11:08:20.513Z,101918.00
2023-03-15T11:10:56.127Z,101913.00
2023-03-15T11:13:24.426Z,101916.00
2023-03-15T11:16:13.512Z,101914.00
2023-03-15T11:18:45.840Z,101914.00
2023-03-15T11:21:17.059Z,101910.00
2023-03-15T11:23:46.718Z,101901.00
2023-03-15T11:26:32.527Z,101907.00
2023-03-15T11:29:21.528Z,101901.00
2023-03-15T11:31:49.883Z,101907.00
2023-03-15T11:34:35.889Z,101897.00
2023-03-15T11:37:08.968Z,101903.00
2023-03-15T11:39:45.783Z,101911.00
2023-03-15T11:42:22.930Z,101905.00
2023-03-15T11:44:55.137Z,101908.00
2023-03-15T11:47:40.418Z,101904.00
2023-03-15T11:50:07.522Z,101898.00
2023-03-15T11:52:34.248Z,101899.00
2023-03-15T11:55:03.812Z,101893.00
2023-03-15T11:57:47.805Z,101897.00
2023-03-15T12:00:34.812Z,101891.00
2023-03-15T12:03:26.009Z,101884.00
2023-03-15T12:06:01.908Z,101890.00
2023-03-15T12:08:43.338Z,101892.00
2023-03-15T12:11:22.178Z,101886.00
2023-03-15T12:14:01.142Z,101893.00
2023-03-15T12:16:30.597Z,101878.00
2023-03-15T12:18:58.914Z,101879.00
2023-03-15T12:21:35.060Z,101882.00
2023-03-15T12:24:09.901Z,101885.00
2023-03-15T12:26:47.066Z,101888.00
2023-03-15T12:29:28.453Z,101885.00
2023-03-15T12:31:56.764Z,101892.00
2023-03-15T12:34:31.776Z,101884.00
2023-03-15T12:37:18.392Z,101882.00
2023-03-15T12:40:00.261Z,101892.00
2023-03-15T12:42:29.683Z,101888.00
2023-03-15T12:45:16.389Z,101881.00
2023-03-15T12:47:49.953Z,101879.00
2023-03-15T12:50:44.435Z,101886.00
2023-03-15T12:53:19.934Z,101889.00
2023-03-15T12:55:47.565Z,101883.00
2023-03-15T12:58:17.536Z,101878.00
2023-03-15T13:00:45.324Z,101880.00
2023-03-15T13:03:17.244Z,101877.00
2023-03-15T13:06:17.643Z,101880.00
2023-03-15T13:09:07.464Z,101869.00
2023-03-15T13:11:45.604Z,101865.00
2023-03-15T13:14:27.146Z,101870.00
2023-03-15T13:17:17.754Z,101869.00
2023-03-15T13:19:52.162Z,101864.00
2023-03-15T13:22:36.047Z,101877.00
2023-03-15T13:26:02.709Z,101879.00
2023-03-15T13:28:42.443Z,101873.00
2023-03-15T13:31:14.367Z,101881.00
2023-03-15T13:33:41.363Z,101869.00
2023-03-15T13:36:15.158Z,101871.00
2023-03-15T13:38:56.576Z,101874.00
2023-03-15T13:41:31.130Z,101869.00
2023-03-15T13:44:02.280Z,101876.00
2023-03-15T13:46:31.107Z,101876.00
2023-03-15T13:49:00.428Z,101872.00
2023-03-15T13:51:35.857Z,101863.00
2023-03-15T13:54:14.063Z,101859.00
2023-03-15T13:57:01.687Z,101858.00
2023-03-15T13:59:35.238Z,101863.00
2023-03-15T14:02:04.053Z,101862.00
2023-03-15T14:04:35.529Z,101862.00
2023-03-15T14:07:33.132Z,101858.00
2023-03-15T14:10:31.890Z,101856.00
2023-03-15T14:13:15.748Z,101845.00
2023-03-15T14:15:44.917Z,101852.00
2023-03-15T14:18:11.450Z,101840.00
2023-03-15T14:21:00.769Z,101831.00
2023-03-15T14:23:29.423Z,101843.00
2023-03-15T14:26:18.097Z,101848.00
2023-03-15T14:28:49.022Z,101846.00
2023-03-15T14:31:23.370Z,101833.00
2023-03-15T14:34:08.404Z,101841.00
2023-03-15T14:36:43.925Z,101837.00
2023-03-15T14:39:26.110Z,101839.00
2023-03-15T14:41:52.913Z,101845.00
2023-03-15T14:44:20.368Z,101845.00
2023-03-15T14:46:47.904Z,101844.00
2023-03-15T14:49:23.099Z,101834.00
2023-03-15T14:51:54.980Z,101835.00
2023-03-15T14:54:21.841Z,101826.00
2023-03-15T14:56:48.402Z,101823.00
2023-03-15T14:59:15.013Z,101812.00
2023-03-15T15:01:47.074Z,101814.00
2023-03-15T15:04:14.100Z,101815.00
2023-03-15T15:06:52.311Z,101814.00
2023-03-15T15:09:23.506Z,101815.00
2023-03-15T15:11:51.644Z,101823.00
2023-03-15T15:14:19.097Z,101812.00
2023-03-15T15:16:46.087Z,101810.00
2023-03-15T15:19:12.954Z,101806.00
2023-03-15T15:21:40.068Z,101795.00
2023-03-15T15:24:18.478Z,101799.00
2023-03-15T15:26:45.058Z,101797.00
2023-03-15T15:29:16.120Z,101793.00
2023-03-15T15:31:44.315Z,101797.00
2023-03-15T15:34:12.921Z,101784.00
2023-03-15T15:36:43.949Z,101772.00
2023-03-15T15:39:22.118Z,101781.00
2023-03-15T15:41:49.607Z,101773.00
2023-03-15T15:44:20.234Z,101776.00
2023-03-15T15:46:47.031Z,101765.00
2023-03-15T15:49:13.952Z,101777.00
2023-03-15T15:51:46.138Z,101770.00
2023-03-15T15:54:16.807Z,101763.00
2023-03-15T15:56:53.186Z,101760.00
2023-03-15T15:59:19.891Z,101753.00
2023-03-15T16:01:59.637Z,101745.00
2023-03-15T16:04:28.466Z,101750.00
2023-03-15T16:06:58.944Z,101749.00
2023-03-15T16:09:26.763Z,101749.00
2023-03-15T16:11:53.622Z,101749.00
2023-03-15T16:14:20.220Z,101743.00
2023-03-15T16:16:48.533Z,101752.00
2023-03-15T16:19:15.262Z,101746.00
2023-03-15T16:21:47.982Z,101742.00
2023-03-15T16:24:21.721Z,101742.00
2023-03-15T16:26:49.534Z,101746.00
2023-03-15T16:29:22.314Z,101754.00
2023-03-15T16:31:49.848Z,101751.00
2023-03-15T16:34:18.687Z,101750.00
2023-03-15T16:36:49.817Z,101751.00
2023-03-15T16:39:17.333Z,101742.00
2023-03-15T16:41:44.121Z,101761.00
2023-03-15T16:44:15.504Z,101746.00
2023-03-15T16:46:42.413Z,101744.00
2023-03-15T16:49:09.452Z,101749.00
2023-03-15T16:51:38.953Z,101752.00
2023-03-15T16:54:19.642Z,101758.00
2023-03-15T16:56:51.328Z,101759.00
2023-03-15T16:59:18.445Z,101754.00
2023-03-15T17:01:46.159Z,101755.00
2023-03-15T17:04:14.986Z,101760.00
2023-03-15T17:06:46.189Z,101753.00
2023-03-15T17:09:16.665Z,101761.00
2023-03-15T17:11:45.607Z,101752.00
2023-03-15T17:14:19.367Z,101754.00
2023-03-15T17:16:46.166Z,101759.00
2023-03-15T17:19:14.253Z,101765.00
2023-03-15T17:21:42.487Z,101759.00
2023-03-15T17:24:10.738Z,101760.00
2023-03-15T17:26:39.016Z,101753.00
2023-03-15T17:29:05.768Z,101757.00
2023-03-15T17:31:34.814Z,101764.00
2023-03-15T17:34:01.894Z,101752.00
2023-03-15T17:36:33.437Z,101757.00
2023-03-15T17:39:00.500Z,101761.00
2023-03-15T17:41:38.389Z,101764.00
2023-03-15T17:44:05.464Z,101763.00
2023-03-15T17:46:33.284Z,101763.00
2023-03-15T17:49:01.178Z,101769.00
2023-03-15T17:51:30.506Z,101763.00
2023-03-15T17:53:59.626Z,101769.00
2023-03-15T17:56:27.689Z,101766.00
2023-03-15T17:58:54.511Z,101759.00
2023-03-15T18:01:24.192Z,101768.00
2023-03-15T18:03:51.553Z,101761.00
2023-03-15T18:06:21.087Z,101760.00
2023-03-15T18:08:49.596Z,101770.00
2023-03-15T18:11:33.845Z,101779.00
2023-03-15T18:14:00.868Z,101781.00
2023-03-15T18:16:27.932Z,101767.00
2023-03-15T18:18:54.904Z,101776.00
2023-03-15T18:21:25.692Z,101771.00
2023-03-15T18:23:52.771Z,101767.00
2023-03-15T18:26:21.013Z,101762.00
2023-03-15T18:28:51.475Z,101764.00
2023-03-15T18:31:21.872Z,101766.00
2023-03-15T18:33:50.064Z,101766.00
2023-03-15T18:36:17.128Z,101776.00
2023-03-15T18:38:44.170Z,101765.00
2023-03-15T18:41:22.618Z,101769.00
2023-03-15T18:43:50.432Z,101763.00
2023-03-15T18:46:23.969Z,101761.00
2023-03-15T18:48:53.460Z,101762.00
2023-03-15T18:51:25.161Z,101752.00
2023-03-15T18:53:52.202Z,101757.00
2023-03-15T18:56:21.479Z,101749.00
2023-03-15T18:58:49.064Z,101748.00
2023-03-15T19:01:16.801Z,101757.00
2023-03-15T19:03:43.811Z,101743.00
2023-03-15T19:06:12.381Z,101747.00
2023-03-15T19:08:39.675Z,101745.00
2023-03-15T19:11:08.089Z,101751.00
2023-03-15T19:13:35.186Z,101751.00
2023-03-15T19:16:02.260Z,101731.00
2023-03-15T19:18:29.695Z,101730.00
2023-03-15T19:20:56.301Z,101736.00
2023-03-15T19:23:23.083Z,101735.00
2023-03-15T19:25:49.759Z,101738.00
2023-03-15T19:28:16.804Z,101738.00
2023-03-15T19:30:43.532Z,101743.00
2023-03-15T19:33:10.421Z,101735.00
2023-03-15T19:35:37.245Z,101727.00
2023-03-15T19:38:04.121Z,101732.00
2023-03-15T19:40:30.773Z,101732.00
2023-03-15T19:42:57.820Z,101726.00
2023-03-15T19:45:24.959Z,101715.00
2023-03-15T19:47:51.604Z,101731.00
2023-03-15T19:50:18.363Z,101725.00
2023-03-15T19:52:48.278Z,101725.00
2023-03-15T19:55:16.997Z,101725.00
2023-03-15T19:57:43.977Z,101736.00
2023-03-15T20:00:14.228Z,101735.00
2023-03-15T20:02:41.730Z,101737.00
2023-03-15T20:05:10.359Z,101730.00
2023-03-15T20:07:37.383Z,101725.00
2023-03-15T20:10:06.101Z,101731.00
2023-03-15T20:12:32.663Z,101716.00
2023-03-15T20:14:59.325Z,101719.00
2023-03-15T20:17:27.488Z,101724.00
2023-03-15T20:19:54.575Z,101712.00
2023-03-15T20:22:21.411Z,101707.00
2023-03-15T20:24:48.104Z,101717.00
2023-03-15T20:27:14.773Z,101709.00
2023-03-15T20:29:41.402Z,101706.00
2023-03-15T20:32:08.188Z,101708.00
2023-03-15T20:34:34.842Z,101697.00
2023-03-15T20:37:01.991Z,101696.00
2023-03-15T20:39:28.677Z,101700.00
2023-03-15T20:41:55.313Z,101702.00
2023-03-15T20:44:21.935Z,101704.00
2023-03-15T20:46:48.625Z,101701.00
2023-03-15T20:49:15.786Z,101691.00
2023-03-15T20:51:42.364Z,101694.00
2023-03-15T20:54:09.101Z,101692.00
2023-03-15T20:56:36.840Z,101695.00
2023-03-15T20:59:03.965Z,101697.00
2023-03-15T21:01:32.247Z,101688.00
2023-03-15T21:03:59.399Z,101694.00
2023-03-15T21:06:26.710Z,101690.00
2023-03-15T21:08:53.665Z,101687.00
2023-03-15T21:11:20.889Z,101704.00
2023-03-15T21:13:48.016Z,101689.00
2023-03-15T21:16:15.243Z,101692.00
2023-03-15T21:18:45.275Z,101683.00
2023-03-15T21:21:12.662Z,101685.00
2023-03-15T21:23:39.715Z,101689.00
2023-03-15T21:26:10.918Z,101682.00
2023-03-15T21:28:39.249Z,101683.00
2023-03-15T21:31:11.017Z,101683.00
2023-03-15T21:33:37.938Z,101678.00
2023-03-15T21:36:05.591Z,101683.00
2023-03-15T21:38:33.791Z,101684.00
2023-03-15T21:41:05.817Z,101679.00
2023-03-15T21:43:33.781Z,101681.00
2023-03-15T21:46:02.385Z,101678.00
2023-03-15T21:48:29.633Z,101676.00
2023-03-15T21:50:57.122Z,101675.00
2023-03-15T21:53:24.153Z,101671.00
2023-03-15T21:55:50.947Z,101672.00
2023-03-15T21:58:17.561Z,101675.00
2023-03-15T22:00:44.271Z,101671.00
2023-03-15T22:03:13.574Z,101665.00
2023-03-15T22:05:40.329Z,101661.00
2023-03-15T22:08:07.377Z,101655.00
2023-03-15T22:10:33.924Z,101659.00
2023-03-15T22:13:00.559Z,101652.00
2023-03-15T22:15:27.258Z,101648.00
2023-03-15T22:17:53.882Z,101644.00
2023-03-15T22:20:20.549Z,101646.00
2023-03-15T22:22:49.099Z,101643.00
2023-03-15T22:25:16.357Z,101637.00
2023-03-15T22:27:43.428Z,101640.00
2023-03-15T22:30:13.614Z,101632.00
2023-03-15T22:32:44.608Z,101638.00
2023-03-15T22:35:16.007Z,101635.00
2023-03-15T22:37:42.873Z,101629.00
2023-03-15T22:40:14.168Z,101625.00
2023-03-15T22:42:42.013Z,101624.00
2023-03-15T22:45:09.191Z,101624.00
2023-03-15T22:47:35.892Z,101619.00
2023-03-15T22:50:02.525Z,101618.00
2023-03-15T22:52:29.096Z,101607.00
2023-03-15T22:54:55.707Z,101621.00
2023-03-15T22:57:22.632Z,101617.00
2023-03-15T22:59:49.272Z,101613.00
2023-03-15T23:02:15.912Z,101607.00
2023-03-15T23:04:42.687Z,101609.00
2023-03-15T23:07:09.376Z,101614.00
2023-03-15T23:09:35.991Z,101613.00
2023-03-15T23:12:03.034Z,101608.00
2023-03-15T23:14:29.652Z,101613.00
2023-03-15T23:16:56.239Z,101609.00
2023-03-15T23:19:22.821Z,101605.00
2023-03-15T23:21:49.470Z,101606.00
2023-03-15T23:24:18.946Z,101612.00
2023-03-15T23:26:45.786Z,101615.00
2023-03-15T23:29:12.410Z,101616.00
2023-03-15T23:31:40.818Z,101607.00
2023-03-15T23:34:08.255Z,101602.00
2023-03-15T23:36:35.507Z,101596.00
2023-03-15T23:39:02.076Z,101599.00
2023-03-15T23:41:29.226Z,101598.00
2023-03-15T23:43:55.916Z,101597.00
2023-03-15T23:46:25.619Z,101597.00
2023-03-15T23:48:53.246Z,101589.00
2023-03-15T23:51:23.286Z,101585.00
2023-03-15T23:53:49.900Z,101582.00
2023-03-15T23:56:16.506Z,101580.00
2023-03-15T23:58:43.118Z,101586.00
